Search for airport 
image banner adimage banner ad
image banner ad

VARK - Rajkot

Located in Rajkot, India

ICAO - VARK, IATA - RAJ

Data provided by Airmate  

General information

Coordinates: N22°18'34" E70°46'46"
Elevation is 441 feet MSL.
 
Rated:
View ratings: [VIEW]


View others Airports in Gujarat

Operational data

Open for public use
Current time UTC:
Current local time:
Weather
METAR: VARK 200900Z 05009KT 6000 SCT020 SCT080 34/24 Q1004
TAF: TAF VARK 200800Z 2009/2018 14005KT 6000 SCT020 BKN080 BECMG 2012/2014 4000 -RA HZ FEW015 SCT020 FEW030TCU BKN080
View NOTAMs / SUP AIP / TFR affecting this airport [VIEW]
Communications frequencies: [VIEW]

Runways:

RWY identifierQFULength (ft)Width (ft)SurfaceLDA (ft)
0547°6056148ASP
23227°6056148

Airport contact information

Address: Rajkot India

Satellite view of VARK